createdAt,value
2018-10-03T00:00:41.451Z,99.90
2018-10-03T00:03:12.503Z,99.90
2018-10-03T00:05:41.662Z,99.90
2018-10-03T00:08:12.576Z,99.90
2018-10-03T00:10:45.072Z,99.90
2018-10-03T00:13:14.784Z,99.90
2018-10-03T00:15:45.502Z,99.90
2018-10-03T00:18:15.590Z,99.90
2018-10-03T00:20:46.734Z,99.90
2018-10-03T00:23:16.927Z,99.90
2018-10-03T00:25:48.315Z,99.90
2018-10-03T00:28:18.226Z,99.90
2018-10-03T00:30:49.421Z,99.90
2018-10-03T00:33:18.590Z,99.90
2018-10-03T00:35:48.196Z,99.90
2018-10-03T00:38:21.316Z,99.90
2018-10-03T00:40:53.035Z,99.90
2018-10-03T00:43:22.716Z,99.90
2018-10-03T00:45:53.697Z,99.90
2018-10-03T00:48:23.765Z,99.90
2018-10-03T00:50:55.831Z,99.90
2018-10-03T00:53:25.581Z,99.90
2018-10-03T00:55:55.397Z,99.90
2018-10-03T00:58:28.941Z,99.90
2018-10-03T01:00:58.554Z,99.90
2018-10-03T01:03:28.909Z,99.90
2018-10-03T01:05:58.458Z,99.90
2018-10-03T01:08:27.645Z,99.90
2018-10-03T01:10:57.720Z,99.90
2018-10-03T01:13:27.765Z,99.90
2018-10-03T01:16:06.585Z,99.90
2018-10-03T01:18:36.581Z,99.90
2018-10-03T01:21:05.817Z,99.90
2018-10-03T01:23:35.371Z,99.90
2018-10-03T01:26:04.581Z,99.90
2018-10-03T01:28:33.415Z,99.90
2018-10-03T01:31:02.548Z,99.90
2018-10-03T01:33:31.630Z,99.90
2018-10-03T01:36:00.791Z,99.90
2018-10-03T01:38:30.180Z,99.90
2018-10-03T01:41:00.356Z,99.90
2018-10-03T01:43:29.167Z,99.90
2018-10-03T01:45:58.241Z,99.90
2018-10-03T01:48:27.586Z,99.90
2018-10-03T01:50:57.010Z,99.90
2018-10-03T01:53:26.129Z,99.90
2018-10-03T01:55:55.878Z,99.90
2018-10-03T01:58:24.748Z,99.90
2018-10-03T02:00:53.558Z,99.90
2018-10-03T02:03:23.064Z,99.90
2018-10-03T02:05:52.440Z,99.90
2018-10-03T02:08:21.598Z,99.90
2018-10-03T02:10:53.486Z,99.90
2018-10-03T02:13:22.414Z,99.90
2018-10-03T02:15:51.818Z,99.90
2018-10-03T02:18:22.201Z,99.90
2018-10-03T02:20:51.290Z,99.90
2018-10-03T02:23:20.449Z,99.90
2018-10-03T02:25:49.915Z,99.90
2018-10-03T02:28:19.019Z,99.90
2018-10-03T02:30:48.254Z,99.90
2018-10-03T02:33:17.356Z,99.90
2018-10-03T02:35:46.435Z,99.90
2018-10-03T02:38:15.899Z,99.90
2018-10-03T02:40:44.979Z,99.90
2018-10-03T02:43:13.803Z,99.90
2018-10-03T02:45:42.875Z,99.90
2018-10-03T02:48:21.031Z,99.90
2018-10-03T02:50:50.361Z,99.90
2018-10-03T02:53:19.472Z,99.90
2018-10-03T02:55:48.640Z,99.90
2018-10-03T02:58:17.783Z,99.90
2018-10-03T03:00:46.846Z,99.90
2018-10-03T03:03:16.864Z,99.90
2018-10-03T03:05:52.645Z,99.90
2018-10-03T03:08:21.917Z,99.90
2018-10-03T03:10:51.036Z,99.90
2018-10-03T03:13:20.171Z,99.90
2018-10-03T03:15:52.285Z,99.90
2018-10-03T03:18:22.698Z,99.90
2018-10-03T03:20:52.705Z,99.90
2018-10-03T03:23:22.735Z,99.90
2018-10-03T03:25:51.582Z,99.90
2018-10-03T03:28:20.948Z,99.90
2018-10-03T03:30:54.860Z,99.90
2018-10-03T03:33:24.363Z,99.90
2018-10-03T03:35:53.511Z,99.90
2018-10-03T03:38:22.728Z,99.90
2018-10-03T03:40:52.173Z,99.90
2018-10-03T03:43:21.949Z,99.90
2018-10-03T03:45:51.070Z,99.90
2018-10-03T03:48:20.381Z,99.90
2018-10-03T03:50:50.121Z,99.90
2018-10-03T03:53:19.341Z,99.90
2018-10-03T03:55:48.513Z,99.90
2018-10-03T03:58:17.629Z,99.90
2018-10-03T04:00:46.497Z,99.90
2018-10-03T04:03:15.621Z,99.90
2018-10-03T04:05:45.515Z,99.90
2018-10-03T04:08:15.610Z,99.90
2018-10-03T04:10:44.848Z,99.90
2018-10-03T04:13:20.955Z,99.90
2018-10-03T04:15:50.551Z,99.90
2018-10-03T04:18:20.307Z,99.90
2018-10-03T04:20:49.164Z,99.90
2018-10-03T04:23:18.056Z,99.90
2018-10-03T04:25:47.261Z,99.90
2018-10-03T04:28:16.477Z,99.90
2018-10-03T04:30:45.908Z,99.90
2018-10-03T04:33:15.779Z,99.90
2018-10-03T04:35:44.979Z,99.90
2018-10-03T04:38:15.479Z,99.90
2018-10-03T04:40:52.374Z,99.90
2018-10-03T04:43:21.311Z,99.90
2018-10-03T04:45:50.153Z,99.90
2018-10-03T04:48:20.263Z,99.90
2018-10-03T04:50:49.441Z,99.90
2018-10-03T04:53:18.592Z,99.90
2018-10-03T04:55:47.795Z,99.90
2018-10-03T04:58:21.338Z,99.90
2018-10-03T05:00:50.580Z,99.90
2018-10-03T05:03:19.616Z,99.90
2018-10-03T05:05:49.670Z,99.90
2018-10-03T05:08:20.828Z,99.90
2018-10-03T05:10:50.058Z,99.90
2018-10-03T05:13:21.685Z,99.90
2018-10-03T05:15:50.942Z,99.90
2018-10-03T05:18:24.734Z,99.90
2018-10-03T05:20:53.898Z,99.90
2018-10-03T05:23:23.131Z,99.90
2018-10-03T05:25:52.019Z,99.90
2018-10-03T05:28:21.238Z,99.90
2018-10-03T05:30:50.375Z,99.90
2018-10-03T05:33:26.235Z,99.90
2018-10-03T05:35:55.456Z,99.90
2018-10-03T05:38:24.630Z,99.90
2018-10-03T05:40:55.339Z,99.90
2018-10-03T05:43:24.770Z,99.90
2018-10-03T05:45:54.829Z,99.90
2018-10-03T05:48:23.719Z,99.90
2018-10-03T05:50:52.699Z,99.90
2018-10-03T05:53:21.848Z,99.90
2018-10-03T05:55:52.410Z,99.90
2018-10-03T05:58:24.600Z,99.90
2018-10-03T06:00:53.778Z,99.90
2018-10-03T06:03:24.520Z,99.90
2018-10-03T06:05:53.913Z,99.90
2018-10-03T06:08:26.649Z,99.90
2018-10-03T06:10:57.578Z,99.90
2018-10-03T06:13:31.200Z,99.90
2018-10-03T06:16:01.850Z,99.90
2018-10-03T06:18:32.286Z,99.90
2018-10-03T06:21:04.932Z,99.90
2018-10-03T06:23:37.370Z,99.90
2018-10-03T06:26:08.280Z,99.90
2018-10-03T06:28:40.052Z,99.90
2018-10-03T06:31:09.278Z,99.90
2018-10-03T06:33:42.367Z,99.90
2018-10-03T06:36:12.408Z,99.90
2018-10-03T06:38:44.729Z,99.90
2018-10-03T06:41:17.364Z,99.90
2018-10-03T06:43:46.759Z,99.90
2018-10-03T06:46:18.098Z,99.90
2018-10-03T06:48:49.293Z,99.90
2018-10-03T06:51:18.431Z,99.90
2018-10-03T06:53:49.187Z,99.90
2018-10-03T06:56:22.890Z,99.90
2018-10-03T06:58:54.101Z,99.90
2018-10-03T07:01:26.661Z,99.90
2018-10-03T07:03:58.042Z,99.90
2018-10-03T07:06:29.074Z,99.90
2018-10-03T07:09:00.134Z,99.90
2018-10-03T07:11:31.607Z,99.90
2018-10-03T07:14:02.718Z,99.90
2018-10-03T07:16:32.915Z,99.90
2018-10-03T07:19:04.384Z,99.90
2018-10-03T07:21:33.615Z,99.90
2018-10-03T07:24:05.488Z,99.90
2018-10-03T07:26:34.623Z,99.90
2018-10-03T07:29:04.416Z,99.90
2018-10-03T07:31:34.054Z,99.90
2018-10-03T07:34:06.709Z,99.90
2018-10-03T07:36:39.284Z,99.90
2018-10-03T07:39:11.781Z,99.90
2018-10-03T07:41:41.518Z,99.90
2018-10-03T07:44:14.260Z,99.90
2018-10-03T07:46:46.281Z,99.90
2018-10-03T07:49:17.793Z,99.90
2018-10-03T07:51:47.418Z,99.90
2018-10-03T07:54:17.770Z,99.90
2018-10-03T07:56:46.677Z,99.90
2018-10-03T07:59:16.999Z,99.90
2018-10-03T08:01:49.142Z,99.90
2018-10-03T08:04:18.905Z,99.90
2018-10-03T08:06:53.339Z,99.90
2018-10-03T08:09:25.988Z,99.90
2018-10-03T08:11:55.559Z,99.90
2018-10-03T08:14:24.987Z,99.90
2018-10-03T08:19:34.267Z,99.90
2018-10-03T08:22:05.857Z,99.90
2018-10-03T08:24:35.382Z,99.90
2018-10-03T08:27:09.478Z,99.90
2018-10-03T08:29:42.039Z,99.90
2018-10-03T08:32:13.647Z,99.90
2018-10-03T08:34:46.334Z,99.90
2018-10-03T08:37:19.575Z,99.90
2018-10-03T08:39:57.090Z,99.90
2018-10-03T08:42:31.064Z,99.90
2018-10-03T08:45:03.337Z,99.90
2018-10-03T08:47:36.491Z,99.90
2018-10-03T08:50:08.366Z,99.90
2018-10-03T08:52:38.515Z,99.90
2018-10-03T08:55:09.530Z,99.90
2018-10-03T08:57:39.573Z,99.60
2018-10-03T09:00:10.364Z,99.20
2018-10-03T09:02:41.185Z,99.30
2018-10-03T09:05:14.293Z,98.20
2018-10-03T09:07:45.306Z,98.30
2018-10-03T09:10:15.669Z,98.20
2018-10-03T09:12:47.435Z,97.40
2018-10-03T09:15:16.464Z,98.00
2018-10-03T09:17:52.186Z,96.60
2018-10-03T09:20:23.099Z,96.80
2018-10-03T09:22:53.509Z,96.20
2018-10-03T09:25:23.634Z,95.30
2018-10-03T09:28:04.649Z,94.80
2018-10-03T09:30:35.698Z,94.60
2018-10-03T09:33:10.419Z,93.70
2018-10-03T09:35:40.469Z,94.80
2018-10-03T09:38:13.981Z,95.50
2018-10-03T09:40:44.478Z,94.70
2018-10-03T09:43:14.663Z,93.70
2018-10-03T09:45:46.515Z,94.40
2018-10-03T09:48:17.735Z,94.40
2018-10-03T09:50:50.860Z,94.60
2018-10-03T09:53:22.262Z,95.30
2018-10-03T09:55:55.341Z,95.30
2018-10-03T09:58:24.977Z,94.80
2018-10-03T10:01:04.685Z,95.40
2018-10-03T10:05:19.915Z,95.00
2018-10-03T10:07:52.429Z,95.20
2018-10-03T10:10:24.642Z,93.30
2018-10-03T10:12:56.130Z,93.00
2018-10-03T10:15:26.882Z,92.00
2018-10-03T10:17:57.266Z,92.00
2018-10-03T10:20:27.862Z,92.00
2018-10-03T10:22:57.940Z,91.90
2018-10-03T10:25:28.441Z,92.00
2018-10-03T10:27:58.854Z,91.10
2018-10-03T10:30:34.350Z,91.30
2018-10-03T10:33:05.566Z,87.10
2018-10-03T10:35:38.146Z,85.50
2018-10-03T10:38:08.953Z,85.30
2018-10-03T10:40:40.690Z,84.40
2018-10-03T10:43:13.287Z,85.40
2018-10-03T10:45:48.414Z,84.90
2018-10-03T10:48:24.289Z,86.20
2018-10-03T10:50:54.236Z,85.60
2018-10-03T10:53:26.296Z,83.50
2018-10-03T10:56:00.452Z,84.10
2018-10-03T10:58:31.408Z,85.70
2018-10-03T11:01:08.031Z,84.30
2018-10-03T11:03:42.843Z,83.50
2018-10-03T11:06:19.173Z,81.60
2018-10-03T11:08:52.719Z,77.50
2018-10-03T11:11:24.276Z,78.70
2018-10-03T11:14:00.752Z,78.50
2018-10-03T11:16:32.713Z,79.40
2018-10-03T11:19:04.640Z,79.80
2018-10-03T11:21:34.175Z,80.20
2018-10-03T11:24:04.431Z,79.60
2018-10-03T11:26:35.278Z,76.00
2018-10-03T11:29:06.744Z,73.60
2018-10-03T11:31:41.672Z,73.60
2018-10-03T11:34:14.662Z,72.40
2018-10-03T11:36:46.796Z,73.60
2018-10-03T11:39:21.794Z,75.60
2018-10-03T11:41:53.114Z,74.10
2018-10-03T11:44:32.043Z,74.30
2018-10-03T11:47:04.476Z,73.60
2018-10-03T11:49:47.652Z,74.00
2018-10-03T11:52:21.203Z,72.30
2018-10-03T11:54:51.205Z,73.00
2018-10-03T11:57:25.397Z,71.40
2018-10-03T12:02:39.473Z,72.40
2018-10-03T12:05:16.751Z,71.40
2018-10-03T12:07:49.241Z,73.50
2018-10-03T12:10:24.185Z,73.20
2018-10-03T12:12:58.485Z,74.30
2018-10-03T12:15:35.732Z,73.50
2018-10-03T12:18:08.086Z,72.50
2018-10-03T12:20:40.205Z,70.60
2018-10-03T12:23:18.802Z,68.80
2018-10-03T12:25:49.351Z,69.10
2018-10-03T12:28:19.612Z,67.10
2018-10-03T12:30:50.203Z,68.00
2018-10-03T12:33:21.578Z,65.40
2018-10-03T12:35:52.084Z,65.40
2018-10-03T12:38:33.317Z,65.20
2018-10-03T12:41:08.077Z,66.30
2018-10-03T12:43:39.464Z,66.90
2018-10-03T12:46:09.869Z,68.80
2018-10-03T12:48:41.433Z,67.50
2018-10-03T12:51:14.157Z,67.80
2018-10-03T12:53:45.537Z,68.10
2018-10-03T12:56:18.225Z,67.90
2018-10-03T12:58:51.646Z,68.70
2018-10-03T13:01:25.139Z,69.70
2018-10-03T13:03:58.392Z,69.30
2018-10-03T13:06:27.891Z,69.40
2018-10-03T13:09:01.693Z,69.00
2018-10-03T13:11:33.987Z,69.50
2018-10-03T13:14:12.953Z,69.60
2018-10-03T13:16:46.341Z,69.00
2018-10-03T13:19:18.219Z,70.30
2018-10-03T13:21:49.418Z,70.70
2018-10-03T13:24:25.691Z,71.60
2018-10-03T13:26:58.747Z,70.60
2018-10-03T13:29:28.850Z,69.40
2018-10-03T13:31:59.029Z,70.00
2018-10-03T13:34:29.390Z,68.90
2018-10-03T13:37:03.177Z,68.10
2018-10-03T13:39:41.038Z,67.40
2018-10-03T13:42:17.933Z,66.90
2018-10-03T13:44:53.095Z,67.60
2018-10-03T13:47:38.040Z,67.50
2018-10-03T13:50:21.224Z,66.20
2018-10-03T13:52:57.797Z,67.00
2018-10-03T13:55:35.383Z,67.10
2018-10-03T13:58:07.662Z,67.60
2018-10-03T14:00:39.756Z,67.10
2018-10-03T14:03:09.003Z,66.90
2018-10-03T14:08:18.321Z,67.30
2018-10-03T14:10:48.408Z,66.90
2018-10-03T14:13:21.096Z,66.00
2018-10-03T14:15:53.353Z,66.40
2018-10-03T14:18:25.318Z,66.30
2018-10-03T14:20:55.881Z,64.30
2018-10-03T14:23:26.492Z,64.40
2018-10-03T14:25:59.723Z,64.20
2018-10-03T14:28:30.003Z,64.50
2018-10-03T14:31:02.588Z,64.60
2018-10-03T14:33:36.196Z,65.70
2018-10-03T14:36:05.734Z,65.90
2018-10-03T14:38:36.757Z,65.80
2018-10-03T14:41:10.022Z,65.90
2018-10-03T14:44:04.771Z,65.10
2018-10-03T14:46:35.472Z,64.50
2018-10-03T14:49:07.856Z,64.70
2018-10-03T14:51:38.716Z,63.80
2018-10-03T14:54:11.195Z,65.20
2018-10-03T14:56:45.664Z,66.20
2018-10-03T14:59:15.870Z,64.10
2018-10-03T15:01:48.535Z,65.70
2018-10-03T15:04:19.418Z,64.90
2018-10-03T15:06:52.433Z,66.00
2018-10-03T15:09:27.465Z,66.10
2018-10-03T15:11:59.943Z,66.00
2018-10-03T15:14:30.677Z,64.70
2018-10-03T15:17:05.657Z,65.00
2018-10-03T15:19:37.996Z,65.50
2018-10-03T15:22:10.317Z,66.20
2018-10-03T15:24:42.582Z,68.00
2018-10-03T15:27:12.873Z,67.80
2018-10-03T15:29:44.243Z,68.50
2018-10-03T15:32:17.340Z,69.70
2018-10-03T15:34:52.418Z,70.60
2018-10-03T15:37:34.846Z,71.10
2018-10-03T15:40:07.512Z,72.40
2018-10-03T15:45:27.248Z,72.30
2018-10-03T15:47:58.187Z,72.40
2018-10-03T15:50:32.018Z,73.40
2018-10-03T15:53:01.501Z,75.10
2018-10-03T15:55:32.274Z,74.40
2018-10-03T15:58:03.381Z,75.90
2018-10-03T16:00:36.635Z,78.10
2018-10-03T16:03:06.698Z,78.40
2018-10-03T16:05:36.947Z,79.20
2018-10-03T16:08:06.436Z,80.50
2018-10-03T16:10:36.930Z,77.50
2018-10-03T16:13:07.695Z,78.00
2018-10-03T16:15:48.429Z,77.80
2018-10-03T16:18:19.926Z,78.60
2018-10-03T16:20:51.078Z,77.70
2018-10-03T16:23:22.021Z,77.00
2018-10-03T16:25:54.645Z,75.80
2018-10-03T16:28:31.145Z,75.80
2018-10-03T16:31:07.641Z,77.40
2018-10-03T16:33:51.510Z,77.40
2018-10-03T16:36:23.685Z,78.20
2018-10-03T16:38:53.927Z,76.80
2018-10-03T16:41:26.046Z,76.80
2018-10-03T16:43:56.247Z,78.30
2018-10-03T16:46:32.965Z,78.80
2018-10-03T16:49:02.493Z,78.40
2018-10-03T16:51:33.680Z,79.00
2018-10-03T16:54:06.807Z,78.80
2018-10-03T16:56:37.191Z,79.50
2018-10-03T16:59:09.956Z,79.80
2018-10-03T17:01:40.159Z,80.00
2018-10-03T17:04:14.631Z,79.30
2018-10-03T17:06:45.727Z,79.40
2018-10-03T17:09:18.902Z,79.40
2018-10-03T17:11:52.504Z,80.20
2018-10-03T17:15:00.004Z,80.40
2018-10-03T17:17:32.568Z,81.80
2018-10-03T17:20:15.052Z,82.20
2018-10-03T17:22:49.321Z,83.90
2018-10-03T17:25:19.667Z,84.80
2018-10-03T17:27:55.346Z,85.30
2018-10-03T17:30:33.777Z,86.40
2018-10-03T17:35:46.111Z,89.90
2018-10-03T17:38:20.197Z,90.40
2018-10-03T17:40:55.498Z,88.60
2018-10-03T17:43:28.687Z,89.90
2018-10-03T17:46:04.523Z,90.40
2018-10-03T17:48:35.745Z,91.00
2018-10-03T17:51:07.928Z,91.40
2018-10-03T17:53:50.363Z,90.80
2018-10-03T17:56:23.270Z,90.30
2018-10-03T17:58:55.367Z,90.20
2018-10-03T18:01:26.212Z,87.80
2018-10-03T18:03:57.222Z,87.30
2018-10-03T18:06:28.839Z,86.40
2018-10-03T18:09:09.222Z,85.90
2018-10-03T18:11:43.676Z,85.40
2018-10-03T18:14:16.193Z,85.70
2018-10-03T18:16:56.632Z,86.00
2018-10-03T18:19:30.739Z,86.00
2018-10-03T18:22:01.292Z,86.10
2018-10-03T18:24:31.946Z,85.70
2018-10-03T18:27:08.190Z,86.50
2018-10-03T18:29:44.895Z,86.70
2018-10-03T18:32:15.370Z,87.40
2018-10-03T18:34:47.510Z,86.80
2018-10-03T18:37:20.327Z,87.10
2018-10-03T18:39:54.384Z,87.10
2018-10-03T18:42:27.747Z,88.00
2018-10-03T18:44:59.335Z,88.10
2018-10-03T18:47:31.253Z,88.80
2018-10-03T18:50:05.029Z,87.50
2018-10-03T18:52:41.402Z,87.90
2018-10-03T18:57:53.272Z,88.50
2018-10-03T19:03:16.091Z,88.80
2018-10-03T19:05:49.058Z,90.00
2018-10-03T19:08:22.140Z,89.70
2018-10-03T19:10:58.959Z,90.10
2018-10-03T19:13:33.082Z,89.60
2018-10-03T19:16:03.297Z,90.00
2018-10-03T19:18:34.742Z,90.10
2018-10-03T19:21:10.746Z,90.30
2018-10-03T19:23:56.837Z,90.30
2018-10-03T19:26:28.543Z,90.70
2018-10-03T19:29:12.036Z,91.40
2018-10-03T19:31:45.684Z,91.50
2018-10-03T19:34:18.761Z,92.10
2018-10-03T19:36:53.672Z,92.20
2018-10-03T19:39:28.142Z,92.60
2018-10-03T19:42:08.323Z,92.80
2018-10-03T19:44:40.780Z,93.10
2018-10-03T19:47:14.071Z,93.10
2018-10-03T19:50:11.742Z,93.50
2018-10-03T19:52:41.095Z,93.30
2018-10-03T19:55:17.202Z,93.50
2018-10-03T19:57:50.038Z,94.00
2018-10-03T20:00:20.006Z,94.50
2018-10-03T20:02:52.790Z,95.10
2018-10-03T20:05:24.365Z,95.00
2018-10-03T20:08:02.640Z,95.20
2018-10-03T20:10:33.556Z,95.90
2018-10-03T20:13:07.100Z,96.20
2018-10-03T20:15:38.206Z,96.50
2018-10-03T20:18:09.760Z,96.60
2018-10-03T20:20:43.616Z,97.20
2018-10-03T20:23:19.351Z,97.10
2018-10-03T20:25:50.613Z,97.20
2018-10-03T20:28:27.317Z,97.70
2018-10-03T20:31:02.075Z,98.20
2018-10-03T20:33:32.269Z,98.80
2018-10-03T20:36:05.665Z,99.20
2018-10-03T20:38:40.800Z,99.70
2018-10-03T20:41:11.676Z,99.90
2018-10-03T20:43:43.326Z,99.90
2018-10-03T20:46:21.920Z,99.90
2018-10-03T20:48:53.259Z,99.90
2018-10-03T20:51:27.917Z,99.90
2018-10-03T20:53:57.767Z,99.90
2018-10-03T20:56:31.414Z,99.90
2018-10-03T20:59:08.450Z,99.90
2018-10-03T21:01:47.004Z,99.90
2018-10-03T21:04:18.989Z,99.90
2018-10-03T21:06:49.964Z,99.90
2018-10-03T21:09:22.551Z,99.90
2018-10-03T21:11:54.430Z,99.90
2018-10-03T21:14:28.422Z,99.90
2018-10-03T21:16:58.449Z,99.90
2018-10-03T21:19:31.275Z,99.90
2018-10-03T21:22:00.644Z,99.90
2018-10-03T21:24:30.780Z,99.90
2018-10-03T21:27:01.705Z,99.90
2018-10-03T21:29:32.295Z,99.90
2018-10-03T21:32:01.526Z,99.90
2018-10-03T21:34:33.841Z,99.90
2018-10-03T21:40:15.671Z,99.90
2018-10-03T21:42:47.805Z,99.90
2018-10-03T21:45:17.436Z,99.90
2018-10-03T21:47:48.721Z,99.90
2018-10-03T21:50:20.431Z,99.90
2018-10-03T21:52:51.924Z,99.90
2018-10-03T21:55:24.605Z,99.90
2018-10-03T21:57:59.576Z,99.90
2018-10-03T22:00:35.625Z,99.90
2018-10-03T22:03:07.160Z,99.90
2018-10-03T22:05:38.051Z,99.90
2018-10-03T22:08:08.207Z,99.90
2018-10-03T22:10:41.658Z,99.90
2018-10-03T22:13:12.790Z,99.90
2018-10-03T22:15:42.012Z,99.90
2018-10-03T22:18:12.394Z,99.90
2018-10-03T22:20:44.289Z,99.90
2018-10-03T22:23:17.486Z,99.90
2018-10-03T22:25:52.590Z,99.90
2018-10-03T22:28:25.639Z,99.90
2018-10-03T22:30:56.181Z,99.90
2018-10-03T22:33:29.345Z,99.90
2018-10-03T22:36:01.338Z,99.90
2018-10-03T22:38:31.221Z,99.90
2018-10-03T22:41:03.389Z,99.90
2018-10-03T22:43:33.906Z,99.90
2018-10-03T22:46:02.782Z,99.90
2018-10-03T22:48:32.998Z,99.90
2018-10-03T22:51:02.374Z,99.90
2018-10-03T22:53:51.374Z,99.90
2018-10-03T22:56:24.660Z,99.90
2018-10-03T22:58:55.609Z,99.90
2018-10-03T23:01:39.000Z,99.90
2018-10-03T23:04:08.263Z,99.90
2018-10-03T23:06:40.562Z,99.90
2018-10-03T23:09:10.273Z,99.90
2018-10-03T23:11:40.038Z,99.90
2018-10-03T23:14:09.591Z,99.90
2018-10-03T23:16:43.606Z,99.90
2018-10-03T23:19:12.790Z,99.90
2018-10-03T23:21:41.961Z,99.90
2018-10-03T23:24:14.151Z,99.90
2018-10-03T23:26:44.590Z,99.90
2018-10-03T23:29:15.343Z,99.90
2018-10-03T23:31:45.243Z,99.90
2018-10-03T23:34:18.873Z,99.90
2018-10-03T23:36:49.167Z,99.90
2018-10-03T23:39:18.248Z,99.90
2018-10-03T23:41:49.596Z,99.90
2018-10-03T23:44:19.529Z,99.90
2018-10-03T23:46:51.410Z,99.90
2018-10-03T23:49:21.135Z,99.90
2018-10-03T23:51:50.948Z,99.90
2018-10-03T23:54:20.294Z,99.90
2018-10-03T23:56:51.478Z,99.90
2018-10-03T23:59:20.588Z,99.90
